Time;durP1;ratioP1;P1;durP2;ratioP2;P2;SDS_P1;SDS_P2;PMS_P1;PMS_P2;Temp;Humidity;BMP_temperature;BMP_pressure;BME280_temperature;BME280_humidity;BME280_pressure;Samples;Min_cycle;Max_cycle;Signal;HPM_P1;HPM_P2
2022/02/04 00:31:53;;;;;;;29.48;13.30;;;11.30;58.40;;;;;;6252306;28;20026;-67
2022/02/04 00:35:06;;;;;;;27.67;13.15;;;11.20;58.40;;;;;;6240334;28;20477;-67
2022/02/04 00:38:19;;;;;;;31.92;15.77;;;11.20;58.60;;;;;;6239206;28;20035;-68
2022/02/04 00:41:24;;;;;;;36.83;15.98;;;11.20;58.70;;;;;;6253783;28;20029;-69
2022/02/04 00:44:28;;;;;;;26.60;12.50;;;11.10;58.80;;;;;;6254162;28;20105;-69
2022/02/04 00:47:32;;;;;;;29.15;13.23;;;11.10;58.90;;;;;;6224392;28;20667;-68
2022/02/04 00:50:49;;;;;;;33.30;13.27;;;11.00;59.00;;;;;;6242104;28;20024;-67
2022/02/04 01:26:46;;;;;;;32.67;14.73;;;10.50;59.80;;;;;;6163308;28;20475;-67
2022/02/04 01:30:16;;;;;;;30.85;12.95;;;10.50;60.00;;;;;;6149788;28;20038;-68
2022/02/04 01:33:17;;;;;;;24.35;11.35;;;10.50;60.20;;;;;;6165096;28;20042;-67
2022/02/04 01:36:18;;;;;;;23.95;11.13;;;10.50;60.10;;;;;;6166185;28;20113;-67
2022/02/04 01:39:19;;;;;;;26.05;10.00;;;10.50;60.10;;;;;;6163520;28;20105;-67
2022/02/04 01:42:20;;;;;;;22.30;10.63;;;10.50;60.10;;;;;;6132934;28;20290;-67
2022/02/04 01:45:20;;;;;;;25.15;11.02;;;10.40;60.10;;;;;;6162767;28;20049;-67
2022/02/04 01:48:21;;;;;;;21.23;9.85;;;10.40;60.20;;;;;;6149404;28;20384;-67
2022/02/04 01:51:22;;;;;;;26.15;10.23;;;10.40;60.40;;;;;;6147534;28;20031;-67
2022/02/04 01:54:24;;;;;;;18.95;9.45;;;10.40;60.40;;;;;;6254857;28;20041;-69
2022/02/04 01:57:24;;;;;;;32.28;11.18;;;10.40;60.40;;;;;;6258020;28;20032;-67
2022/02/04 02:00:25;;;;;;;21.58;9.75;;;10.40;60.40;;;;;;6262566;28;20052;-67
2022/02/04 02:03:27;;;;;;;18.88;9.18;;;10.40;60.40;;;;;;6265607;28;20059;-68
2022/02/04 02:06:47;;;;;;;17.30;7.60;;;10.40;60.40;;;;;;6280391;28;20028;-67
2022/02/04 02:10:11;;;;;;;13.93;6.97;;;10.40;60.20;;;;;;6277465;28;20458;-67
2022/02/04 02:52:28;;;;;;;22.33;9.23;;;10.20;59.10;;;;;;6281922;28;20052;-67
2022/02/04 02:58:32;;;;;;;20.38;8.35;;;10.10;59.30;;;;;;6277588;28;20028;-68
2022/02/04 03:01:34;;;;;;;17.17;8.00;;;10.10;59.50;;;;;;6274902;28;20044;-69
2022/02/04 03:04:34;;;;;;;16.20;9.18;;;10.10;59.50;;;;;;6277135;28;20044;-67
2022/02/04 03:07:35;;;;;;;20.42;9.88;;;10.00;59.60;;;;;;6276738;28;20055;-67
2022/02/04 03:10:37;;;;;;;24.20;10.48;;;10.00;59.60;;;;;;6260794;28;20044;-67
2022/02/04 03:13:38;;;;;;;24.83;10.40;;;10.00;59.70;;;;;;6275781;28;20044;-67
2022/02/04 03:16:39;;;;;;;26.13;11.00;;;10.00;59.90;;;;;;6256292;28;20017;-67
2022/02/04 03:19:45;;;;;;;22.63;11.00;;;10.00;59.90;;;;;;6276596;28;20033;-69
2022/02/04 03:22:46;;;;;;;21.27;10.05;;;9.90;59.90;;;;;;6277792;28;20027;-67
2022/02/04 03:25:53;;;;;;;27.35;11.95;;;9.90;60.00;;;;;;6277558;28;20090;-67
2022/02/04 03:28:59;;;;;;;25.33;12.52;;;9.90;60.10;;;;;;6275922;28;20144;-67
2022/02/04 03:32:06;;;;;;;26.73;12.35;;;9.80;60.20;;;;;;6273360;28;20565;-68
2022/02/04 03:35:07;;;;;;;29.83;11.80;;;9.80;60.40;;;;;;6273324;28;20055;-67
2022/02/04 03:38:08;;;;;;;28.92;11.88;;;9.80;60.40;;;;;;6261107;28;20029;-68
2022/02/04 03:41:10;;;;;;;25.50;12.15;;;9.80;60.50;;;;;;6278978;28;20057;-69
2022/02/04 03:44:11;;;;;;;30.17;12.95;;;9.80;60.70;;;;;;6276858;28;20033;-67
2022/02/04 03:47:12;;;;;;;24.27;10.57;;;9.70;60.90;;;;;;6275980;28;20094;-67
2022/02/04 03:50:13;;;;;;;26.75;11.38;;;9.70;61.10;;;;;;6272280;28;20614;-67
2022/02/04 03:53:16;;;;;;;24.33;10.45;;;9.60;61.30;;;;;;6277050;28;20358;-67
2022/02/04 03:56:17;;;;;;;20.67;9.35;;;9.60;61.40;;;;;;6278247;28;20077;-67
2022/02/04 03:59:18;;;;;;;18.63;8.63;;;9.70;61.50;;;;;;6271277;28;20040;-67
2022/02/04 04:02:19;;;;;;;17.55;8.52;;;9.70;61.30;;;;;;6282930;28;20040;-67
2022/02/04 04:05:20;;;;;;;16.13;7.28;;;9.70;61.10;;;;;;6279946;28;20028;-67
2022/02/04 04:08:21;;;;;;;13.82;6.63;;;9.80;60.90;;;;;;6265866;28;20421;-68
2022/02/04 04:11:22;;;;;;;15.95;7.15;;;9.70;60.60;;;;;;6261813;28;20043;-69
2022/02/04 04:14:23;;;;;;;22.98;6.47;;;9.60;60.60;;;;;;6281328;28;20021;-66
2022/02/04 04:17:24;;;;;;;15.23;7.07;;;9.50;60.60;;;;;;6261379;28;20405;-67
2022/02/04 04:20:27;;;;;;;12.80;6.78;;;9.40;60.80;;;;;;6280546;28;20008;-66
2022/02/04 04:23:28;;;;;;;20.30;6.72;;;9.40;61.00;;;;;;6264152;28;20518;-67
2022/02/04 04:26:29;;;;;;;13.13;5.90;;;9.40;61.10;;;;;;6246899;28;20082;-66
2022/02/04 04:29:30;;;;;;;18.05;6.88;;;9.40;61.10;;;;;;6280509;28;20029;-67
2022/02/04 04:32:31;;;;;;;14.82;6.35;;;9.40;61.20;;;;;;6260999;28;20076;-67
2022/02/04 04:35:32;;;;;;;17.92;6.15;;;9.40;61.20;;;;;;6263086;28;20256;-67
2022/02/04 04:38:40;;;;;;;12.20;6.00;;;9.40;61.30;;;;;;6260444;28;20028;-67
2022/02/04 05:28:12;;;;;;;15.93;6.15;;;9.10;62.30;;;;;;6264566;28;20028;-68
2022/02/04 05:31:14;;;;;;;15.63;6.22;;;9.10;62.30;;;;;;6261340;28;20438;-67
2022/02/04 05:34:17;;;;;;;12.93;7.13;;;9.20;62.40;;;;;;6275093;28;20032;-67
2022/02/04 05:37:20;;;;;;;14.05;6.05;;;9.20;62.20;;;;;;6251999;28;20025;-67
2022/02/04 05:40:24;;;;;;;16.95;7.28;;;9.20;62.00;;;;;;6262266;28;20394;-67
2022/02/04 05:43:29;;;;;;;12.88;5.95;;;9.40;62.10;;;;;;6261381;28;20112;-67
2022/02/04 05:46:36;;;;;;;14.77;6.43;;;9.40;61.90;;;;;;6264334;28;20140;-66
2022/02/04 05:49:40;;;;;;;13.32;5.95;;;9.50;61.80;;;;;;6244553;28;20343;-67
2022/02/04 05:59:27;;;;;;;12.10;5.95;;;9.50;61.40;;;;;;6275963;28;20609;-67
2022/02/04 06:02:40;;;;;;;19.20;6.57;;;9.50;61.20;;;;;;6267721;28;20143;-67
2022/02/04 06:22:26;;;;;;;11.95;6.68;;;9.60;60.70;;;;;;6201149;28;20034;-68
2022/02/04 06:25:27;;;;;;;13.77;6.35;;;9.70;60.80;;;;;;6169740;28;20058;-68
2022/02/04 06:28:28;;;;;;;20.58;7.88;;;9.70;60.70;;;;;;6196196;28;20618;-68
2022/02/04 06:31:29;;;;;;;19.30;8.13;;;9.70;60.70;;;;;;6194887;28;20542;-69
2022/02/04 06:34:30;;;;;;;19.63;8.60;;;9.80;60.60;;;;;;6191752;28;20725;-70
2022/02/04 06:37:31;;;;;;;17.85;8.80;;;9.80;60.50;;;;;;6190377;28;20118;-70
2022/02/04 06:40:32;;;;;;;31.13;9.75;;;9.90;60.40;;;;;;6255512;28;20086;-70
2022/02/04 06:43:33;;;;;;;19.60;7.80;;;9.90;60.30;;;;;;6271607;28;20116;-69
2022/02/04 06:46:34;;;;;;;26.30;8.43;;;9.90;60.20;;;;;;6258218;28;20493;-69
2022/02/04 06:49:35;;;;;;;19.75;7.25;;;9.90;60.10;;;;;;6257355;28;20029;-69
2022/02/04 06:52:35;;;;;;;16.67;7.28;;;9.90;60.00;;;;;;6277280;28;20020;-70
2022/02/04 06:55:36;;;;;;;17.83;7.38;;;9.90;60.00;;;;;;6253527;28;20035;-70
2022/02/04 06:58:38;;;;;;;18.48;7.13;;;9.90;59.90;;;;;;6274132;28;20038;-68
2022/02/04 07:01:38;;;;;;;15.52;7.38;;;9.90;60.00;;;;;;6255977;28;20024;-68
2022/02/04 07:04:40;;;;;;;16.48;6.40;;;9.90;60.00;;;;;;6272864;28;20472;-70
2022/02/04 07:07:47;;;;;;;15.35;5.78;;;10.00;60.00;;;;;;6271512;28;20045;-69
2022/02/04 07:20:00;;;;;;;18.35;8.35;;;10.00;59.60;;;;;;6272120;28;20037;-70
2022/02/04 07:23:01;;;;;;;18.17;7.25;;;10.10;59.60;;;;;;6274853;28;20036;-68
2022/02/04 07:26:03;;;;;;;18.15;6.85;;;10.20;59.60;;;;;;6274027;28;20020;-69
2022/02/04 07:29:04;;;;;;;17.55;7.20;;;10.30;59.60;;;;;;6277240;28;20059;-68
2022/02/04 07:32:26;;;;;;;13.73;6.20;;;10.40;59.40;;;;;;6275447;28;20107;-69
2022/02/04 07:42:13;;;;;;;17.67;6.38;;;10.60;58.90;;;;;;6278850;28;20431;-71
2022/02/04 07:45:14;;;;;;;14.90;6.43;;;10.60;58.80;;;;;;6281548;28;20025;-69
2022/02/04 07:48:15;;;;;;;18.17;7.22;;;10.60;58.70;;;;;;6278717;28;20479;-69
2022/02/04 07:51:18;;;;;;;16.90;8.18;;;10.60;58.60;;;;;;6277332;28;20024;-70
2022/02/04 07:54:20;;;;;;;12.52;6.53;;;10.60;58.60;;;;;;6278147;28;20078;-69
2022/02/04 07:57:21;;;;;;;17.50;7.07;;;10.60;58.60;;;;;;6280573;28;20025;-69
2022/02/04 08:00:22;;;;;;;14.68;7.25;;;10.60;58.60;;;;;;6279063;28;20182;-69
2022/02/04 08:06:33;;;;;;;16.40;6.88;;;10.60;58.70;;;;;;6283236;28;20020;-69
2022/02/04 08:10:00;;;;;;;14.63;6.93;;;10.60;58.60;;;;;;6278944;28;20104;-68
2022/02/04 08:29:43;;;;;;;22.15;8.80;;;10.90;58.10;;;;;;6252644;28;20372;-69
2022/02/04 08:55:47;;;;;;;23.23;7.55;;;10.50;57.70;;;;;;6177811;28;20460;-68
2022/02/04 08:58:54;;;;;;;17.48;7.65;;;10.40;57.80;;;;;;6159066;28;20038;-69
2022/02/04 09:02:14;;;;;;;20.37;8.33;;;10.40;57.90;;;;;;6171855;28;20030;-68
2022/02/04 09:05:16;;;;;;;20.45;8.40;;;10.50;58.00;;;;;;6185731;28;20472;-69
2022/02/04 09:08:24;;;;;;;16.83;7.88;;;10.60;58.10;;;;;;6169388;28;20157;-69
2022/02/04 09:24:58;;;;;;;26.13;9.43;;;10.80;57.60;;;;;;6232746;28;20109;-69
2022/02/04 09:27:59;;;;;;;26.88;9.10;;;10.80;57.50;;;;;;6217610;28;20663;-68
2022/02/04 09:31:00;;;;;;;21.90;9.00;;;10.80;57.40;;;;;;6216692;28;20038;-68
2022/02/04 09:34:01;;;;;;;17.15;8.18;;;10.80;57.50;;;;;;6232680;28;20033;-69
2022/02/04 09:37:02;;;;;;;25.67;8.70;;;10.90;57.50;;;;;;6226377;28;20038;-69
2022/02/04 09:40:05;;;;;;;18.30;7.88;;;11.00;57.50;;;;;;6212749;28;20061;-70
2022/02/04 09:43:06;;;;;;;16.15;7.57;;;11.00;57.50;;;;;;6230858;28;20041;-69
2022/02/04 09:46:08;;;;;;;22.50;7.43;;;11.10;57.30;;;;;;6234382;28;20040;-69
2022/02/04 09:49:25;;;;;;;22.60;9.18;;;11.10;57.30;;;;;;6232958;28;20029;-69
2022/02/04 10:12:52;;;;;;;21.73;10.23;;;11.60;56.60;;;;;;6275048;28;20029;-70
2022/02/04 10:16:15;;;;;;;26.48;11.40;;;11.60;56.50;;;;;;6279871;28;20030;-69
2022/02/04 10:19:29;;;;;;;22.92;9.82;;;11.70;56.50;;;;;;6260653;28;20090;-70
2022/02/04 10:22:31;;;;;;;20.83;9.48;;;11.70;56.40;;;;;;6276859;28;20215;-69
2022/02/04 10:25:39;;;;;;;22.92;9.45;;;11.80;56.30;;;;;;6259620;28;20480;-70
2022/02/04 10:28:41;;;;;;;28.15;10.30;;;11.80;56.20;;;;;;6253463;28;20096;-70
2022/02/04 10:31:52;;;;;;;18.60;8.25;;;11.80;56.20;;;;;;6259999;28;20041;-69
2022/02/04 10:35:23;;;;;;;18.58;7.75;;;11.90;56.00;;;;;;6261880;28;20032;-68
2022/02/04 10:38:39;;;;;;;19.33;8.93;;;11.90;56.00;;;;;;6274012;28;20048;-68
2022/02/04 10:41:42;;;;;;;22.70;9.65;;;11.90;55.90;;;;;;6261143;28;20028;-69
2022/02/04 10:45:38;;;;;;;18.95;9.63;;;11.90;55.80;;;;;;6274046;28;20123;-69
2022/02/04 11:00:55;;;;;;;36.67;14.88;;;12.20;55.60;;;;;;6264525;28;20020;-71
2022/02/04 11:04:24;;;;;;;40.33;15.25;;;12.30;55.50;;;;;;6256608;28;20045;-70
2022/02/04 11:31:04;;;;;;;22.80;10.32;;;12.90;54.10;;;;;;6274067;28;20086;-69
2022/02/04 11:57:20;;;;;;;23.35;10.98;;;13.70;53.10;;;;;;6136139;29;20082;-69
2022/02/04 12:00:28;;;;;;;25.63;10.68;;;13.90;53.00;;;;;;6124144;29;20047;-69
2022/02/04 12:03:39;;;;;;;23.63;9.88;;;14.00;52.70;;;;;;6140078;29;20146;-70
2022/02/04 12:06:41;;;;;;;25.83;9.63;;;14.10;52.50;;;;;;6136925;29;20039;-70
2022/02/04 12:09:46;;;;;;;31.65;10.00;;;14.20;52.30;;;;;;6136683;29;20039;-70
2022/02/04 12:12:56;;;;;;;20.67;8.88;;;14.30;52.10;;;;;;6119722;29;20039;-70
2022/02/04 12:16:07;;;;;;;27.17;11.00;;;14.40;52.00;;;;;;6134855;29;20035;-70
2022/02/04 12:19:10;;;;;;;29.45;12.93;;;14.50;51.80;;;;;;6123290;29;20047;-68
2022/02/04 12:22:12;;;;;;;22.38;11.45;;;14.60;51.60;;;;;;6122778;29;20098;-69
2022/02/04 12:25:51;;;;;;;30.75;12.02;;;14.60;51.50;;;;;;6122032;29;20052;-70
2022/02/04 12:29:01;;;;;;;22.27;11.10;;;14.80;51.40;;;;;;6133539;29;20040;-69
2022/02/04 12:32:02;;;;;;;22.85;10.55;;;15.00;51.00;;;;;;6189079;28;20058;-70
2022/02/04 12:35:04;;;;;;;20.52;9.65;;;15.10;50.60;;;;;;6273435;28;20082;-71
2022/02/04 12:38:04;;;;;;;28.02;10.50;;;15.30;50.40;;;;;;6282352;28;20043;-69
2022/02/04 12:41:05;;;;;;;32.42;12.00;;;15.50;50.10;;;;;;6276750;28;20357;-69
2022/02/04 12:44:11;;;;;;;22.67;9.80;;;15.60;49.90;;;;;;6279010;28;20024;-68
2022/02/04 12:47:20;;;;;;;25.80;10.50;;;15.60;49.60;;;;;;6280051;28;20024;-70
2022/02/04 12:50:25;;;;;;;24.63;10.98;;;15.70;49.50;;;;;;6279103;28;20125;-69
2022/02/04 12:53:29;;;;;;;20.20;10.00;;;15.70;49.40;;;;;;6279372;28;20494;-69
2022/02/04 12:56:37;;;;;;;19.95;10.32;;;15.70;49.70;;;;;;6276569;28;20017;-70
2022/02/04 12:59:53;;;;;;;23.30;10.18;;;15.70;48.80;;;;;;6276787;28;20043;-70
2022/02/04 13:12:55;;;;;;;22.17;12.07;;;15.80;48.70;;;;;;6180792;28;20035;-69
2022/02/04 13:15:56;;;;;;;21.38;10.68;;;15.70;48.60;;;;;;6183382;28;20050;-69
2022/02/04 13:19:05;;;;;;;23.48;10.48;;;15.70;48.70;;;;;;6183869;28;20073;-70
2022/02/04 13:22:07;;;;;;;21.77;10.55;;;15.70;48.80;;;;;;6175730;28;20479;-69
2022/02/04 13:25:11;;;;;;;21.17;10.10;;;15.70;48.80;;;;;;6178270;28;20067;-74
2022/02/04 13:28:16;;;;;;;21.77;10.40;;;15.70;48.70;;;;;;6166899;28;20113;-68
2022/02/04 13:31:22;;;;;;;22.08;10.82;;;15.70;48.60;;;;;;6166191;28;20042;-70
2022/02/04 13:34:29;;;;;;;27.20;11.38;;;15.60;48.70;;;;;;6179135;28;20038;-69
2022/02/04 13:37:38;;;;;;;16.38;8.80;;;15.50;48.70;;;;;;6181103;28;20035;-70
2022/02/04 13:41:17;;;;;;;5.47;3.03;;;15.50;48.70;;;;;;6180126;28;20078;-70
2022/02/04 13:44:52;;;;;;;2.85;1.85;;;15.40;48.40;;;;;;6163422;28;20189;-69
2022/02/04 13:48:05;;;;;;;8.73;2.20;;;15.30;48.20;;;;;;6176806;28;20023;-69
2022/02/04 13:51:44;;;;;;;5.32;2.00;;;15.10;47.90;;;;;;6264272;28;20024;-69
2022/02/04 13:57:42;;;;;;;3.13;1.90;;;14.80;48.50;;;;;;6261452;28;20556;-69
2022/02/04 14:01:07;;;;;;;3.80;2.10;;;14.60;48.00;;;;;;6259012;28;20025;-70
2022/02/04 14:04:10;;;;;;;4.22;1.88;;;14.60;48.20;;;;;;6272180;28;20434;-69
2022/02/04 14:07:14;;;;;;;3.70;2.03;;;14.50;48.10;;;;;;6262786;28;20116;-70
2022/02/04 14:10:24;;;;;;;6.10;2.17;;;14.30;48.10;;;;;;6278537;28;20115;-69
2022/02/04 14:13:28;;;;;;;8.35;1.45;;;14.20;48.50;;;;;;6284670;28;20102;-69
2022/02/04 14:16:29;;;;;;;3.20;1.65;;;14.10;48.70;;;;;;6273131;28;20024;-69
2022/02/04 14:19:30;;;;;;;8.95;1.63;;;13.90;48.80;;;;;;6277904;28;20586;-74
2022/02/04 14:22:30;;;;;;;4.22;1.75;;;13.80;49.00;;;;;;6277397;28;20079;-73
2022/02/04 14:25:43;;;;;;;4.10;1.85;;;13.70;49.00;;;;;;6274448;28;20025;-71
2022/02/04 14:54:49;;;;;;;1.42;1.17;;;13.60;49.70;;;;;;6281362;28;20048;-72
2022/02/04 15:01:04;;;;;;;3.10;1.63;;;13.80;49.30;;;;;;6272505;28;20025;-73
2022/02/04 15:04:13;;;;;;;6.35;3.33;;;14.00;49.30;;;;;;6273774;28;20120;-73
2022/02/04 15:07:14;;;;;;;3.88;2.10;;;14.00;49.10;;;;;;6248935;28;20029;-72
2022/02/04 15:10:28;;;;;;;3.30;1.60;;;14.00;49.00;;;;;;6254402;28;20053;-72
2022/02/04 15:13:31;;;;;;;4.93;2.58;;;14.00;49.10;;;;;;6255389;28;20473;-72
2022/02/04 15:16:33;;;;;;;2.58;1.95;;;14.10;49.00;;;;;;6271252;28;20049;-73
2022/02/04 15:19:34;;;;;;;3.65;1.85;;;14.00;49.00;;;;;;6272559;28;20033;-72
2022/02/04 15:22:35;;;;;;;6.20;2.40;;;14.20;49.10;;;;;;6273434;28;20085;-74
2022/02/04 15:25:36;;;;;;;14.85;3.65;;;14.20;49.00;;;;;;6275158;28;20032;-72
2022/02/04 15:28:46;;;;;;;13.02;3.70;;;14.20;49.00;;;;;;6274435;28;20035;-72
2022/02/04 15:31:55;;;;;;;7.80;3.20;;;14.20;49.10;;;;;;6246704;28;20175;-73
2022/02/04 15:34:56;;;;;;;7.50;3.58;;;14.20;49.00;;;;;;6254001;28;20025;-73
2022/02/04 15:37:57;;;;;;;6.57;2.78;;;14.20;49.00;;;;;;6257204;28;20063;-73
2022/02/04 15:40:58;;;;;;;5.53;3.13;;;14.20;49.10;;;;;;6273453;28;20076;-72
2022/02/04 15:44:06;;;;;;;17.60;2.85;;;14.20;49.00;;;;;;6248799;28;20044;-74
2022/02/04 15:53:32;;;;;;;6.60;2.38;;;14.10;49.10;;;;;;6272327;28;20446;-72
2022/02/04 16:03:44;;;;;;;4.10;2.45;;;14.10;49.00;;;;;;6178276;28;20053;-72
2022/02/04 16:06:47;;;;;;;14.57;3.08;;;14.00;49.00;;;;;;6199129;28;20041;-73
2022/02/04 16:09:56;;;;;;;6.05;3.33;;;14.00;49.10;;;;;;6186344;28;20034;-72
2022/02/04 16:16:23;;;;;;;11.65;4.55;;;14.10;49.30;;;;;;6165408;28;20027;-73
2022/02/04 16:22:32;;;;;;;15.75;5.65;;;14.00;49.40;;;;;;6150538;28;20038;-71
2022/02/04 16:28:39;;;;;;;13.32;5.50;;;14.00;49.40;;;;;;6150128;28;20030;-72
2022/02/04 16:31:40;;;;;;;16.50;6.47;;;14.00;49.60;;;;;;6166613;28;20110;-73
2022/02/04 16:34:42;;;;;;;12.63;6.00;;;14.00;49.60;;;;;;6194444;28;20034;-72
2022/02/04 16:37:50;;;;;;;13.55;6.13;;;14.00;49.70;;;;;;6207153;28;20034;-71
2022/02/04 16:40:53;;;;;;;7.80;3.88;;;14.00;49.80;;;;;;6204808;28;20121;-71
2022/02/04 16:43:54;;;;;;;10.38;4.10;;;14.00;49.80;;;;;;6190005;28;20129;-71
2022/02/04 16:46:55;;;;;;;12.57;4.32;;;14.00;49.80;;;;;;6202647;28;20331;-72
2022/02/04 16:50:00;;;;;;;15.50;4.43;;;13.90;49.90;;;;;;6200215;28;20121;-75
2022/02/04 16:53:02;;;;;;;12.88;4.65;;;13.90;50.00;;;;;;6212729;28;20043;-71
2022/02/04 16:56:04;;;;;;;11.43;5.03;;;13.90;50.00;;;;;;6233193;28;20105;-72
2022/02/04 16:59:05;;;;;;;14.18;4.65;;;13.90;50.00;;;;;;6237055;28;20029;-72
2022/02/04 17:02:06;;;;;;;16.15;5.65;;;13.90;50.00;;;;;;6238240;28;20045;-72
2022/02/04 17:05:09;;;;;;;10.40;4.68;;;13.90;50.10;;;;;;6276903;28;20060;-72
2022/02/04 17:08:12;;;;;;;14.02;4.20;;;13.80;50.10;;;;;;6263694;28;20061;-72
2022/02/04 17:11:16;;;;;;;10.32;4.30;;;13.80;50.20;;;;;;6261255;28;20059;-72
2022/02/04 17:14:17;;;;;;;8.00;3.90;;;13.80;50.30;;;;;;6276036;28;20035;-72
2022/02/04 17:17:23;;;;;;;11.00;2.70;;;13.80;50.20;;;;;;6266462;28;20432;-72
2022/02/04 17:20:25;;;;;;;6.05;2.45;;;13.70;50.20;;;;;;6276673;28;20017;-71
2022/02/04 17:23:29;;;;;;;22.83;2.95;;;13.60;50.30;;;;;;6266072;28;20350;-72
2022/02/04 17:26:32;;;;;;;7.22;3.78;;;13.50;50.30;;;;;;6262964;28;20178;-72
2022/02/04 17:29:32;;;;;;;13.55;3.15;;;13.50;50.30;;;;;;6277075;28;20071;-72
2022/02/04 17:32:33;;;;;;;9.10;2.83;;;13.50;50.40;;;;;;6277097;28;20449;-72
2022/02/04 17:35:34;;;;;;;15.18;2.85;;;13.50;50.40;;;;;;6280975;28;20224;-71
2022/02/04 17:38:36;;;;;;;4.80;2.85;;;13.50;50.40;;;;;;6276109;28;20032;-72
2022/02/04 17:41:37;;;;;;;8.48;2.67;;;13.50;50.40;;;;;;6277313;28;20029;-72
2022/02/04 17:44:38;;;;;;;11.32;2.83;;;13.50;50.40;;;;;;6275394;28;20322;-72
2022/02/04 17:47:40;;;;;;;13.23;2.80;;;13.50;51.00;;;;;;6278330;28;20094;-73
2022/02/04 17:50:51;;;;;;;8.95;2.67;;;13.50;50.40;;;;;;6275026;28;20032;-72
2022/02/04 17:53:56;;;;;;;11.25;2.75;;;13.60;50.40;;;;;;6275443;28;20021;-71
2022/02/04 17:57:07;;;;;;;8.85;3.70;;;13.60;50.40;;;;;;6279045;28;20032;-71
2022/02/04 18:05:17;;;;;;;15.27;6.28;;;13.60;50.30;;;;;;6279632;28;20099;-72
2022/02/04 18:09:54;;;;;;;12.38;5.30;;;13.60;50.40;;;;;;6270919;28;20355;-73
2022/02/04 18:12:56;;;;;;;18.73;7.57;;;13.70;50.40;;;;;;6261880;28;20028;-72
2022/02/04 18:16:00;;;;;;;23.90;10.80;;;13.60;50.40;;;;;;6276211;28;20548;-71
2022/02/04 18:19:01;;;;;;;50.10;17.55;;;13.60;50.50;;;;;;6277343;28;20033;-74
2022/02/04 18:22:02;;;;;;;33.35;12.88;;;13.70;50.80;;;;;;6275625;28;20370;-71
2022/02/04 18:25:04;;;;;;;28.65;11.30;;;13.60;50.90;;;;;;6274243;28;20040;-71
2022/02/04 18:28:05;;;;;;;22.05;10.73;;;13.60;51.10;;;;;;6279922;28;20082;-72
2022/02/04 18:31:06;;;;;;;24.05;10.10;;;13.70;51.30;;;;;;6276464;28;20029;-72
2022/02/04 18:34:10;;;;;;;21.90;8.93;;;13.70;51.50;;;;;;6276318;28;20013;-72
2022/02/04 18:37:10;;;;;;;18.38;8.63;;;13.70;51.60;;;;;;6258041;28;20036;-72
2022/02/04 18:40:31;;;;;;;21.50;8.63;;;13.70;51.60;;;;;;6274280;28;20450;-72
2022/02/04 18:43:53;;;;;;;19.17;8.30;;;13.80;51.70;;;;;;6256067;28;20592;-71
2022/02/04 18:47:06;;;;;;;33.22;10.95;;;13.70;51.60;;;;;;6277546;28;20039;-72
2022/02/04 18:50:20;;;;;;;21.95;10.73;;;13.70;51.60;;;;;;6280670;28;20024;-73
2022/02/04 18:57:05;;;;;;;18.55;8.88;;;13.70;51.70;;;;;;6276735;28;20398;-71
2022/02/04 18:59:58;;;;;;;32.75;12.13;;;13.70;51.70;;;;;;6275377;28;20086;-70
2022/02/04 19:03:03;;;;;;;25.15;11.00;;;13.70;51.70;;;;;;6275560;28;20469;-71
2022/02/04 19:06:15;;;;;;;40.03;14.48;;;13.70;51.70;;;;;;6278828;28;20032;-71
2022/02/04 19:09:16;;;;;;;63.10;19.80;;;13.70;51.80;;;;;;6276114;28;20128;-71
2022/02/04 19:12:21;;;;;;;58.28;22.83;;;13.60;52.00;;;;;;6256849;28;20367;-72
2022/02/04 19:18:32;;;;;;;54.03;21.52;;;13.50;52.30;;;;;;6276914;28;20494;-71
2022/02/04 19:24:47;;;;;;;33.05;11.32;;;13.50;52.40;;;;;;6277525;28;20194;-71
2022/02/04 19:27:48;;;;;;;24.13;11.65;;;13.50;52.50;;;;;;6258754;28;20047;-71
2022/02/04 19:30:51;;;;;;;27.27;11.50;;;13.50;52.50;;;;;;6241167;28;20029;-71
2022/02/04 19:33:52;;;;;;;31.50;12.82;;;13.50;52.60;;;;;;6247666;28;20434;-72
2022/02/04 19:36:55;;;;;;;29.77;13.45;;;13.50;52.80;;;;;;6275826;28;20025;-71
2022/02/04 19:39:55;;;;;;;28.70;13.95;;;13.40;52.90;;;;;;6266761;28;20040;-72
2022/02/04 19:42:56;;;;;;;26.75;11.95;;;13.50;53.00;;;;;;6255752;28;20033;-71
2022/02/04 19:46:10;;;;;;;28.35;11.98;;;13.40;53.10;;;;;;6280228;28;20210;-72
2022/02/04 19:49:18;;;;;;;36.63;13.00;;;13.40;53.20;;;;;;6280988;28;20047;-72
2022/02/04 19:52:28;;;;;;;35.13;13.80;;;13.40;53.40;;;;;;6261399;28;20029;-72
2022/02/04 20:25:05;;;;;;;26.63;8.32;;;13.40;53.20;;;;;;6261815;28;20025;-71
2022/02/04 20:28:09;;;;;;;20.75;8.68;;;13.40;53.10;;;;;;6263169;28;20025;-71
2022/02/04 20:31:09;;;;;;;23.65;9.65;;;13.40;53.10;;;;;;6261293;28;20032;-72
2022/02/04 20:34:10;;;;;;;23.88;8.57;;;13.40;53.00;;;;;;6262808;28;20064;-71
2022/02/04 20:37:11;;;;;;;23.50;9.70;;;13.40;53.10;;;;;;6280197;28;20028;-72
2022/02/04 20:43:18;;;;;;;25.83;10.20;;;13.30;53.60;;;;;;6279714;28;20719;-72
2022/02/04 20:46:19;;;;;;;23.67;10.75;;;13.30;53.70;;;;;;6278646;28;20119;-72
2022/02/04 20:49:19;;;;;;;23.58;9.13;;;13.30;53.90;;;;;;6257208;28;20025;-72
2022/02/04 20:52:22;;;;;;;23.70;10.40;;;13.20;54.10;;;;;;6257878;28;20069;-72
2022/02/04 20:55:23;;;;;;;25.13;9.63;;;13.20;54.30;;;;;;6263669;28;20101;-72
2022/02/04 20:58:25;;;;;;;29.38;11.48;;;13.10;54.40;;;;;;6259990;28;20032;-72
2022/02/04 21:01:26;;;;;;;27.90;9.82;;;13.10;54.50;;;;;;6275746;28;20391;-72
2022/02/04 21:04:27;;;;;;;23.67;10.30;;;13.00;54.60;;;;;;6270293;28;20052;-72
2022/02/04 21:07:50;;;;;;;25.13;11.48;;;13.00;54.70;;;;;;6279158;28;20021;-71
2022/02/04 21:14:16;;;;;;;19.85;9.90;;;13.00;54.80;;;;;;6282955;28;20090;-72
2022/02/04 21:17:21;;;;;;;29.45;10.90;;;13.00;54.80;;;;;;6278870;28;20030;-71
2022/02/04 21:20:22;;;;;;;25.88;11.75;;;13.00;54.80;;;;;;6276759;28;20033;-72
2022/02/04 21:23:23;;;;;;;24.40;10.75;;;13.00;54.90;;;;;;6278991;28;20032;-71
2022/02/04 21:26:23;;;;;;;26.48;10.52;;;13.00;55.10;;;;;;6277478;28;20040;-72
2022/02/04 21:29:24;;;;;;;28.30;10.25;;;13.00;55.80;;;;;;6280524;28;20029;-72
2022/02/04 21:32:25;;;;;;;26.02;10.43;;;13.10;55.30;;;;;;6277503;28;20044;-71
2022/02/04 21:38:46;;;;;;;33.72;12.18;;;13.10;55.40;;;;;;6274633;28;20075;-70
2022/02/04 21:41:48;;;;;;;30.67;12.38;;;13.20;55.50;;;;;;6275585;28;20074;-70
2022/02/04 21:44:50;;;;;;;33.47;12.32;;;13.10;55.60;;;;;;6279135;28;20029;-72
2022/02/04 21:47:54;;;;;;;28.77;11.75;;;13.10;55.70;;;;;;6266933;28;20035;-72
2022/02/04 21:50:55;;;;;;;27.77;11.80;;;13.10;55.80;;;;;;6278031;28;20058;-71
2022/02/04 21:53:56;;;;;;;25.45;12.07;;;13.10;55.80;;;;;;6277243;28;20021;-71
2022/02/04 21:56:57;;;;;;;25.23;11.88;;;13.00;55.90;;;;;;6267114;28;20024;-72
2022/02/04 21:59:57;;;;;;;30.40;12.65;;;13.00;56.00;;;;;;6276057;28;20064;-72
2022/02/04 22:03:00;;;;;;;26.85;12.10;;;12.90;56.10;;;;;;6275817;28;20040;-72
2022/02/04 22:06:03;;;;;;;25.55;12.32;;;13.00;56.30;;;;;;6254678;28;20493;-72
2022/02/04 22:25:35;;;;;;;27.73;12.45;;;12.90;56.30;;;;;;6180657;28;20038;-71
2022/02/04 22:28:39;;;;;;;27.30;12.65;;;12.90;56.40;;;;;;6184139;28;20620;-72
2022/02/04 22:31:40;;;;;;;27.27;11.93;;;12.80;56.40;;;;;;6184445;28;20097;-72
2022/02/04 22:34:56;;;;;;;32.42;14.50;;;12.80;56.50;;;;;;6149217;28;20051;-72
2022/02/04 22:51:28;;;;;;;27.30;13.68;;;12.90;56.40;;;;;;6100699;29;20042;-71
2022/02/04 22:57:51;;;;;;;28.20;13.15;;;12.90;56.20;;;;;;6098445;29;20525;-71
2022/02/04 23:00:52;;;;;;;28.60;13.30;;;12.90;56.10;;;;;;6114794;28;20046;-71
2022/02/04 23:03:55;;;;;;;28.50;12.15;;;13.00;56.10;;;;;;6154671;28;20207;-71
2022/02/04 23:06:58;;;;;;;28.13;11.07;;;13.00;56.00;;;;;;6156789;28;20474;-72
2022/02/04 23:10:00;;;;;;;26.45;10.90;;;13.00;56.10;;;;;;6144202;28;20036;-72
2022/02/04 23:13:08;;;;;;;26.13;12.73;;;13.00;56.00;;;;;;6153833;28;20645;-72
2022/02/04 23:16:16;;;;;;;27.52;11.93;;;13.00;55.90;;;;;;6163064;28;20110;-72
2022/02/04 23:19:30;;;;;;;29.08;13.27;;;13.00;55.80;;;;;;6148867;28;20175;-72
2022/02/04 23:22:41;;;;;;;24.50;11.68;;;13.10;55.80;;;;;;6166364;28;20183;-70
2022/02/04 23:25:48;;;;;;;27.98;11.80;;;13.00;55.70;;;;;;6248343;28;20090;-72
2022/02/04 23:29:20;;;;;;;28.83;11.90;;;13.10;55.80;;;;;;6281557;28;20025;-71
2022/02/04 23:32:34;;;;;;;24.13;10.50;;;13.10;55.80;;;;;;6280363;28;20524;-73
2022/02/04 23:45:39;;;;;;;19.35;8.90;;;12.70;56.30;;;;;;6283743;28;20024;-72
2022/02/04 23:51:59;;;;;;;23.23;8.98;;;12.60;56.60;;;;;;6284858;28;20074;-71
2022/02/04 23:55:00;;;;;;;20.90;9.15;;;12.60;56.70;;;;;;6269972;28;20056;-71
2022/02/04 23:58:03;;;;;;;19.25;9.30;;;12.60;56.80;;;;;;6266805;28;21905;-72
